Weather at Logan International Airport

Public forecast

Using degrees Fahrenheit for public forecast. Weather courtesy of forecast.io.

Current aviation weather report (METAR) for Logan International Airport

Retrieved 2021/04/20 14:54 UTC (57 minutes ago):

KBOS 201454Z 21016G23KT 10SM FEW140 FEW250 21/02 A2986 RMK AO2 SLP111 T02060022 58006

Aviation forecast (TAF) for Logan International Airport

Retrieved 2021/04/20 12:23 UTC (3 hours ago):

TAF KBOS 201120Z 2012/2118 25005KT P6SM FEW100 FM201600 24015G28KT P6SM SCT050 FM202300 26010KT P6SM SCT050 FM210200 25004KT P6SM SCT250 FM210900 14004KT P6SM SCT100 FM211500 19012G24KT P6SM SCT100